createdAt,value
2023-03-27T00:02:09.032Z,62.55
2023-03-27T00:04:36.107Z,62.03
2023-03-27T00:07:03.837Z,63.83
2023-03-27T00:09:32.933Z,60.75
2023-03-27T00:12:01.089Z,60.63
2023-03-27T00:14:28.750Z,62.82
2023-03-27T00:16:57.423Z,62.02
2023-03-27T00:19:25.194Z,60.73
2023-03-27T00:21:53.332Z,64.25
2023-03-27T00:24:20.634Z,64.07
2023-03-27T00:26:47.883Z,63.19
2023-03-27T00:29:14.902Z,64.35
2023-03-27T00:31:42.098Z,66.23
2023-03-27T00:34:10.629Z,66.00
2023-03-27T00:36:37.573Z,63.53
2023-03-27T00:39:05.217Z,62.64
2023-03-27T00:41:34.024Z,62.68
2023-03-27T00:44:01.030Z,65.42
2023-03-27T00:46:49.698Z,62.77
2023-03-27T00:49:17.230Z,64.49
2023-03-27T00:51:46.728Z,65.98
2023-03-27T00:54:16.347Z,64.72
2023-03-27T00:56:44.592Z,65.74
2023-03-27T00:59:16.565Z,66.76
2023-03-27T01:01:43.696Z,65.10
2023-03-27T01:04:11.005Z,64.79
2023-03-27T01:06:38.213Z,67.17
2023-03-27T01:09:05.658Z,67.16
2023-03-27T01:11:43.483Z,65.98
2023-03-27T01:14:38.033Z,65.62
2023-03-27T01:17:11.467Z,63.66
2023-03-27T01:20:13.956Z,64.76
2023-03-27T01:22:41.129Z,65.39
2023-03-27T01:25:10.957Z,63.61
2023-03-27T01:28:03.036Z,68.29
2023-03-27T01:30:39.817Z,67.87
2023-03-27T01:33:16.422Z,68.23
2023-03-27T01:36:08.487Z,70.85
2023-03-27T01:39:02.964Z,68.12
2023-03-27T01:41:40.088Z,69.80
2023-03-27T01:44:43.520Z,69.44
2023-03-27T01:47:34.444Z,68.46
2023-03-27T01:50:06.775Z,68.39
2023-03-27T01:52:35.703Z,67.32
2023-03-27T01:55:05.188Z,67.88
2023-03-27T01:57:37.392Z,67.65
2023-03-27T02:00:20.810Z,66.45
2023-03-27T02:02:58.331Z,65.49
2023-03-27T02:05:37.805Z,65.45
2023-03-27T02:08:14.708Z,65.75
2023-03-27T02:10:45.649Z,65.96
2023-03-27T02:13:21.624Z,65.90
2023-03-27T02:15:50.151Z,66.01
2023-03-27T02:18:23.768Z,65.70
2023-03-27T02:20:50.960Z,66.98
2023-03-27T02:23:18.191Z,65.43
2023-03-27T02:25:45.418Z,67.78
2023-03-27T02:28:24.633Z,65.07
2023-03-27T02:31:32.480Z,65.72
2023-03-27T02:34:24.521Z,63.20
2023-03-27T02:37:17.792Z,64.28
2023-03-27T02:40:14.505Z,65.44
2023-03-27T02:43:13.173Z,63.34
2023-03-27T02:45:43.390Z,64.50
2023-03-27T02:48:17.939Z,62.91
2023-03-27T02:50:53.243Z,62.82
2023-03-27T02:53:22.288Z,66.74
2023-03-27T02:55:52.426Z,68.88
2023-03-27T02:58:22.525Z,70.22
2023-03-27T03:00:59.311Z,67.50
2023-03-27T03:03:54.077Z,66.26
2023-03-27T03:06:54.348Z,66.95
2023-03-27T03:09:21.585Z,67.12
2023-03-27T03:11:52.978Z,66.98
2023-03-27T03:14:24.689Z,66.93
2023-03-27T03:16:52.159Z,66.26
2023-03-27T03:19:19.252Z,67.01
2023-03-27T03:21:47.163Z,68.12
2023-03-27T03:24:14.245Z,65.71
2023-03-27T03:26:45.358Z,63.95
2023-03-27T03:29:14.269Z,63.63
2023-03-27T03:31:49.803Z,66.42
2023-03-27T03:34:19.116Z,67.79
2023-03-27T03:36:49.927Z,66.86
2023-03-27T03:39:22.276Z,67.32
2023-03-27T03:41:50.455Z,68.04
2023-03-27T03:44:17.701Z,67.27
2023-03-27T03:46:44.948Z,68.04
2023-03-27T03:49:12.271Z,69.51
2023-03-27T03:51:39.418Z,67.73
2023-03-27T03:54:07.188Z,69.25
2023-03-27T03:56:34.805Z,69.40
2023-03-27T03:59:02.305Z,68.80
2023-03-27T04:01:30.418Z,69.25
2023-03-27T04:04:02.554Z,69.18
2023-03-27T04:06:47.108Z,70.91
2023-03-27T04:09:14.485Z,71.26
2023-03-27T04:11:56.851Z,72.25
2023-03-27T04:14:49.955Z,71.04
2023-03-27T04:17:40.106Z,71.86
2023-03-27T04:20:11.074Z,71.11
2023-03-27T04:22:38.297Z,71.00
2023-03-27T04:25:08.564Z,71.08
2023-03-27T04:27:35.977Z,69.83
2023-03-27T04:30:23.548Z,70.06
2023-03-27T04:33:09.064Z,71.28
2023-03-27T04:36:06.385Z,71.10
2023-03-27T04:39:02.431Z,70.02
2023-03-27T04:41:32.713Z,69.53
2023-03-27T04:43:59.866Z,70.77
2023-03-27T04:46:27.224Z,71.09
2023-03-27T04:49:00.647Z,71.18
2023-03-27T04:51:51.258Z,72.75
2023-03-27T04:54:19.457Z,71.42
2023-03-27T04:56:46.974Z,71.17
2023-03-27T04:59:15.710Z,70.20
2023-03-27T05:01:44.727Z,68.83
2023-03-27T05:04:48.877Z,70.09
2023-03-27T05:07:20.151Z,68.85
2023-03-27T05:09:47.912Z,67.46
2023-03-27T05:12:15.116Z,69.29
2023-03-27T05:14:49.368Z,67.02
2023-03-27T05:17:38.709Z,67.09
2023-03-27T05:20:08.479Z,66.31
2023-03-27T05:22:36.461Z,69.20
2023-03-27T05:25:16.303Z,68.27
2023-03-27T05:27:50.213Z,67.97
2023-03-27T05:30:19.623Z,69.40
2023-03-27T05:32:49.317Z,70.37
2023-03-27T05:35:24.415Z,68.27
2023-03-27T05:37:54.282Z,68.76
2023-03-27T05:40:32.668Z,68.27
2023-03-27T05:43:00.120Z,67.44
2023-03-27T05:45:29.585Z,69.83
2023-03-27T05:47:57.790Z,70.40
2023-03-27T05:50:28.540Z,72.01
2023-03-27T05:52:58.892Z,72.45
2023-03-27T05:55:36.827Z,72.46
2023-03-27T05:58:06.156Z,71.52
2023-03-27T06:00:34.445Z,69.79
2023-03-27T06:03:03.476Z,69.68
2023-03-27T06:05:54.093Z,70.29
2023-03-27T06:08:21.448Z,67.97
2023-03-27T06:10:48.896Z,66.56
2023-03-27T06:13:32.146Z,65.77
2023-03-27T06:16:07.920Z,65.04
2023-03-27T06:18:53.616Z,65.62
2023-03-27T06:21:22.729Z,66.35
2023-03-27T06:23:56.707Z,66.55
2023-03-27T06:26:23.804Z,65.26
2023-03-27T06:28:51.008Z,64.79
2023-03-27T06:31:20.182Z,64.60
2023-03-27T06:34:06.445Z,65.84
2023-03-27T06:36:48.565Z,66.29
2023-03-27T06:39:16.215Z,68.61
2023-03-27T06:41:49.391Z,65.61
2023-03-27T06:44:25.542Z,65.11
2023-03-27T06:47:13.182Z,66.32
2023-03-27T06:49:59.630Z,67.31
2023-03-27T06:52:26.773Z,68.77
2023-03-27T06:55:00.539Z,69.36
2023-03-27T06:57:27.768Z,68.33
2023-03-27T07:00:02.253Z,67.78
2023-03-27T07:03:01.021Z,67.62
2023-03-27T07:05:45.727Z,66.30
2023-03-27T07:08:23.582Z,66.44
2023-03-27T07:13:24.731Z,67.90
2023-03-27T07:15:51.986Z,67.13
2023-03-27T07:18:22.135Z,66.59
2023-03-27T07:20:50.933Z,66.91
2023-03-27T07:23:21.986Z,65.75
2023-03-27T07:26:00.838Z,68.32
2023-03-27T07:28:52.016Z,64.61
2023-03-27T07:31:35.000Z,66.44
2023-03-27T07:34:09.674Z,68.50
2023-03-27T07:36:59.768Z,68.00
2023-03-27T07:39:26.996Z,67.37
2023-03-27T07:41:55.408Z,65.50
2023-03-27T07:44:30.854Z,63.56
2023-03-27T07:47:04.604Z,65.48
2023-03-27T07:49:39.426Z,63.74
2023-03-27T07:52:11.379Z,64.32
2023-03-27T07:54:57.083Z,63.46
2023-03-27T07:57:31.558Z,62.13
2023-03-27T08:00:07.584Z,60.18
2023-03-27T08:02:45.774Z,61.81
2023-03-27T08:05:15.280Z,61.07
2023-03-27T08:07:45.743Z,61.79
2023-03-27T08:10:16.765Z,62.69
2023-03-27T08:12:57.174Z,61.79
2023-03-27T08:15:25.380Z,64.51
2023-03-27T08:17:55.581Z,61.91
2023-03-27T08:20:26.123Z,63.13
2023-03-27T08:22:55.889Z,63.26
2023-03-27T08:25:33.140Z,63.89
2023-03-27T08:28:03.142Z,62.87
2023-03-27T08:30:31.250Z,63.37
2023-03-27T08:33:00.246Z,61.71
2023-03-27T08:35:27.842Z,61.26
2023-03-27T08:37:55.212Z,60.36
2023-03-27T08:40:49.378Z,63.35
2023-03-27T08:43:41.672Z,62.08
2023-03-27T08:46:22.447Z,63.80
2023-03-27T08:49:32.954Z,62.70
2023-03-27T08:52:19.902Z,62.23
2023-03-27T08:54:58.598Z,61.32
2023-03-27T08:57:35.906Z,61.65
2023-03-27T09:00:32.348Z,63.21
2023-03-27T09:03:36.153Z,59.98
2023-03-27T09:06:22.737Z,59.75
2023-03-27T09:09:15.480Z,61.74
2023-03-27T09:11:59.034Z,58.63
2023-03-27T09:14:35.718Z,58.35
2023-03-27T09:17:21.824Z,58.35
2023-03-27T09:19:59.242Z,57.58
2023-03-27T09:22:30.070Z,57.59
2023-03-27T09:25:32.684Z,61.28
2023-03-27T09:28:40.365Z,59.26
2023-03-27T09:31:16.644Z,60.16
2023-03-27T09:33:45.291Z,59.23
2023-03-27T09:36:12.579Z,58.51
2023-03-27T09:38:42.257Z,58.36
2023-03-27T09:41:18.760Z,58.44
2023-03-27T09:43:55.185Z,58.54
2023-03-27T09:46:23.714Z,59.68
2023-03-27T09:49:27.415Z,55.98
2023-03-27T09:51:58.553Z,56.32
2023-03-27T09:54:54.038Z,57.67
2023-03-27T09:57:35.775Z,56.54
2023-03-27T10:00:15.896Z,56.52
2023-03-27T10:02:47.934Z,59.71
2023-03-27T10:05:22.199Z,58.45
2023-03-27T10:07:54.504Z,60.45
2023-03-27T10:10:45.410Z,60.56
2023-03-27T10:13:24.669Z,57.57
2023-03-27T10:15:58.679Z,58.36
2023-03-27T10:18:31.553Z,56.89
2023-03-27T10:21:37.918Z,56.50
2023-03-27T10:24:17.904Z,57.17
2023-03-27T10:27:09.014Z,56.55
2023-03-27T10:29:41.337Z,55.09
2023-03-27T10:32:13.161Z,54.00
2023-03-27T10:34:58.286Z,52.47
2023-03-27T10:37:34.052Z,52.51
2023-03-27T10:40:31.060Z,51.62
2023-03-27T10:43:05.434Z,50.75
2023-03-27T10:45:34.678Z,49.10
2023-03-27T10:48:03.357Z,48.20
2023-03-27T10:50:53.330Z,45.69
2023-03-27T10:53:42.805Z,45.62
2023-03-27T10:56:31.226Z,45.84
2023-03-27T10:59:00.672Z,44.15
2023-03-27T11:01:39.590Z,41.20
2023-03-27T11:04:14.359Z,42.58
2023-03-27T11:06:48.681Z,40.84
2023-03-27T11:09:27.124Z,40.26
2023-03-27T11:12:04.543Z,41.94
2023-03-27T11:15:07.648Z,42.16
2023-03-27T11:18:05.740Z,43.33
2023-03-27T11:20:52.079Z,43.16
2023-03-27T11:23:37.663Z,40.31
2023-03-27T11:26:23.693Z,41.30
2023-03-27T11:29:02.089Z,39.04
2023-03-27T11:31:40.184Z,38.39
2023-03-27T11:34:29.000Z,39.04
2023-03-27T11:37:25.943Z,39.97
2023-03-27T11:40:14.369Z,38.81
2023-03-27T11:42:43.873Z,38.65
2023-03-27T11:45:17.860Z,39.01
2023-03-27T11:47:57.910Z,38.03
2023-03-27T11:50:37.847Z,37.45
2023-03-27T11:53:14.892Z,36.84
2023-03-27T11:56:29.299Z,37.51
2023-03-27T11:59:11.654Z,38.43
2023-03-27T12:01:47.725Z,36.65
2023-03-27T12:04:31.425Z,35.99
2023-03-27T12:07:48.226Z,37.05
2023-03-27T12:10:31.979Z,36.78
2023-03-27T12:13:47.742Z,37.15
2023-03-27T12:17:02.205Z,36.81
2023-03-27T12:20:05.649Z,39.10
2023-03-27T12:22:44.185Z,39.61
2023-03-27T12:25:24.901Z,39.96
2023-03-27T12:28:44.891Z,40.16
2023-03-27T12:31:19.974Z,39.06
2023-03-27T12:34:26.525Z,39.31
2023-03-27T12:36:53.774Z,37.87
2023-03-27T12:39:27.068Z,38.26
2023-03-27T12:41:58.522Z,37.01
2023-03-27T12:45:29.149Z,37.39
2023-03-27T12:48:11.036Z,38.38
2023-03-27T12:50:45.106Z,37.46
2023-03-27T12:53:31.071Z,39.89
2023-03-27T12:56:10.511Z,40.50
2023-03-27T12:58:38.664Z,39.35
2023-03-27T13:01:51.810Z,39.51
2023-03-27T13:04:41.426Z,39.75
2023-03-27T13:07:36.038Z,41.17
2023-03-27T13:10:31.831Z,40.84
2023-03-27T13:13:20.476Z,40.81
2023-03-27T13:16:14.075Z,53.14
2023-03-27T13:19:19.202Z,56.01
2023-03-27T13:22:02.210Z,57.28
2023-03-27T13:24:54.418Z,53.45
2023-03-27T13:27:38.880Z,48.63
2023-03-27T13:30:07.569Z,46.80
2023-03-27T13:33:14.594Z,46.18
2023-03-27T13:35:53.500Z,42.35
2023-03-27T13:38:53.017Z,42.86
2023-03-27T13:41:41.770Z,41.44
2023-03-27T13:44:43.705Z,37.80
2023-03-27T13:47:29.638Z,37.80
2023-03-27T13:50:18.158Z,36.46
2023-03-27T13:52:53.837Z,37.61
2023-03-27T13:55:56.599Z,37.27
2023-03-27T13:58:53.077Z,41.95
2023-03-27T14:01:58.896Z,44.53
2023-03-27T14:04:57.396Z,47.75
2023-03-27T14:07:45.267Z,48.20
2023-03-27T14:11:00.294Z,50.95
2023-03-27T14:13:42.587Z,53.45
2023-03-27T14:16:40.324Z,51.63
2023-03-27T14:19:40.624Z,49.90
2023-03-27T14:22:32.505Z,49.33
2023-03-27T14:25:02.818Z,49.77
2023-03-27T14:27:41.340Z,48.02
2023-03-27T14:30:13.589Z,47.04
2023-03-27T14:32:43.116Z,47.01
2023-03-27T14:35:38.025Z,46.87
2023-03-27T14:38:31.989Z,46.40
2023-03-27T14:41:07.104Z,44.14
2023-03-27T14:43:52.432Z,45.47
2023-03-27T14:46:21.896Z,45.25
2023-03-27T14:48:58.257Z,45.27
2023-03-27T14:51:34.960Z,44.77
2023-03-27T14:54:05.425Z,42.80
2023-03-27T14:56:47.976Z,42.88
2023-03-27T14:59:44.238Z,42.69
2023-03-27T15:02:23.808Z,42.77
2023-03-27T15:04:58.355Z,42.93
2023-03-27T15:07:33.375Z,42.22
2023-03-27T15:10:29.939Z,43.85
2023-03-27T15:13:12.041Z,46.01
2023-03-27T15:15:48.967Z,59.40
2023-03-27T15:18:36.201Z,63.66
2023-03-27T15:21:13.773Z,66.21
2023-03-27T15:23:56.122Z,65.04
2023-03-27T15:26:25.762Z,65.20
2023-03-27T15:28:55.937Z,71.47
2023-03-27T15:31:25.810Z,71.77
2023-03-27T15:34:03.644Z,70.87
2023-03-27T15:36:33.326Z,71.11
2023-03-27T15:39:01.553Z,74.42
2023-03-27T15:41:33.094Z,75.33
2023-03-27T15:44:02.107Z,73.96
2023-03-27T15:46:48.191Z,70.82
2023-03-27T15:49:35.894Z,66.83
2023-03-27T15:52:31.614Z,64.16
2023-03-27T15:54:59.573Z,62.35
2023-03-27T15:57:29.377Z,64.72
2023-03-27T16:00:02.884Z,64.17
2023-03-27T16:02:39.577Z,63.67
2023-03-27T16:05:07.085Z,61.38
2023-03-27T16:07:48.604Z,60.45
2023-03-27T16:10:30.381Z,57.53
2023-03-27T16:13:30.121Z,57.21
2023-03-27T16:16:04.035Z,56.52
2023-03-27T16:18:35.707Z,55.53
2023-03-27T16:21:14.671Z,55.31
2023-03-27T16:23:44.924Z,55.54
2023-03-27T16:26:16.819Z,56.00
2023-03-27T16:28:44.617Z,55.45
2023-03-27T16:31:13.545Z,54.59
2023-03-27T16:33:43.122Z,53.81
2023-03-27T16:36:30.204Z,55.11
2023-03-27T16:38:57.357Z,55.96
2023-03-27T16:41:24.414Z,56.94
2023-03-27T16:43:51.450Z,58.49
2023-03-27T16:46:18.461Z,56.51
2023-03-27T16:48:45.868Z,58.05
2023-03-27T16:51:12.857Z,59.89
2023-03-27T16:53:40.048Z,57.18
2023-03-27T16:56:07.578Z,57.47
2023-03-27T16:58:34.695Z,57.72
2023-03-27T17:01:01.949Z,57.65
2023-03-27T17:03:29.176Z,56.20
2023-03-27T17:06:00.908Z,55.27
2023-03-27T17:08:30.341Z,53.49
2023-03-27T17:11:04.528Z,52.36
2023-03-27T17:13:32.274Z,51.83
2023-03-27T17:15:59.851Z,54.53
2023-03-27T17:18:27.163Z,55.53
2023-03-27T17:20:54.511Z,57.24
2023-03-27T17:23:22.076Z,56.89
2023-03-27T17:25:49.138Z,56.40
2023-03-27T17:28:16.388Z,56.26
2023-03-27T17:30:56.385Z,55.81
2023-03-27T17:33:28.635Z,54.40
2023-03-27T17:35:57.404Z,54.08
2023-03-27T17:38:24.920Z,53.05
2023-03-27T17:40:52.170Z,52.97
2023-03-27T17:43:19.200Z,55.70
2023-03-27T17:45:46.285Z,57.32
2023-03-27T17:48:13.406Z,55.17
2023-03-27T17:50:51.920Z,56.57
2023-03-27T17:53:26.796Z,55.56
2023-03-27T17:55:53.784Z,55.59
2023-03-27T17:58:22.098Z,55.23
2023-03-27T18:00:49.479Z,54.11
2023-03-27T18:03:16.742Z,54.21
2023-03-27T18:05:43.865Z,52.68
2023-03-27T18:08:11.821Z,51.40
2023-03-27T18:10:49.209Z,51.74
2023-03-27T18:13:17.914Z,55.15
2023-03-27T18:15:45.477Z,55.04
2023-03-27T18:18:12.710Z,58.64
2023-03-27T18:20:40.462Z,58.74
2023-03-27T18:23:07.840Z,56.08
2023-03-27T18:25:35.192Z,55.92
2023-03-27T18:28:02.214Z,57.35
2023-03-27T18:30:31.098Z,55.86
2023-03-27T18:32:59.473Z,57.62
2023-03-27T18:35:26.764Z,55.00
2023-03-27T18:37:54.018Z,55.57
2023-03-27T18:40:21.619Z,55.25
2023-03-27T18:42:49.271Z,54.73
2023-03-27T18:45:17.317Z,59.28
2023-03-27T18:47:44.902Z,57.92
2023-03-27T18:50:13.727Z,61.04
2023-03-27T18:52:41.713Z,60.54
2023-03-27T18:55:09.901Z,59.90
2023-03-27T18:57:38.044Z,57.84
2023-03-27T19:00:09.878Z,56.16
2023-03-27T19:02:37.440Z,55.40
2023-03-27T19:05:06.236Z,57.96
2023-03-27T19:07:33.309Z,55.78
2023-03-27T19:10:00.541Z,56.06
2023-03-27T19:12:36.985Z,55.22
2023-03-27T19:15:22.596Z,55.45
2023-03-27T19:18:12.851Z,54.21
2023-03-27T19:21:02.412Z,56.77
2023-03-27T19:23:42.803Z,57.39
2023-03-27T19:26:14.141Z,57.28
2023-03-27T19:28:44.426Z,57.35
2023-03-27T19:31:12.049Z,56.98
2023-03-27T19:33:39.536Z,55.45
2023-03-27T19:36:07.374Z,54.92
2023-03-27T19:38:34.641Z,56.10
2023-03-27T19:41:02.584Z,55.89
2023-03-27T19:43:32.825Z,55.32
2023-03-27T19:46:15.040Z,54.58
2023-03-27T19:48:44.657Z,56.32
2023-03-27T19:51:23.234Z,55.91
2023-03-27T19:53:52.918Z,54.63
2023-03-27T19:56:23.329Z,55.78
2023-03-27T19:58:50.755Z,55.36
2023-03-27T20:01:20.199Z,55.98
2023-03-27T20:03:47.502Z,54.26
2023-03-27T20:06:19.011Z,56.07
2023-03-27T20:08:46.517Z,56.94
2023-03-27T20:11:15.760Z,56.05
2023-03-27T20:13:55.554Z,59.67
2023-03-27T20:16:26.271Z,57.64
2023-03-27T20:19:04.324Z,57.80
2023-03-27T20:21:34.015Z,58.12
2023-03-27T20:24:01.064Z,57.84
2023-03-27T20:26:39.175Z,59.37
2023-03-27T20:29:19.979Z,58.21
2023-03-27T20:31:47.094Z,59.17
2023-03-27T20:34:14.682Z,59.27
2023-03-27T20:36:46.889Z,59.94
2023-03-27T20:39:27.491Z,57.87
2023-03-27T20:42:00.990Z,60.04
2023-03-27T20:44:36.115Z,60.16
2023-03-27T20:47:11.254Z,59.26
2023-03-27T20:49:41.689Z,58.33
2023-03-27T20:52:18.270Z,58.02
2023-03-27T20:54:45.668Z,57.17
2023-03-27T20:57:15.276Z,56.87
2023-03-27T20:59:42.356Z,55.98
2023-03-27T21:02:14.127Z,56.67
2023-03-27T21:04:41.401Z,58.52
2023-03-27T21:07:09.796Z,56.32
2023-03-27T21:09:38.681Z,56.73
2023-03-27T21:12:06.232Z,56.55
2023-03-27T21:14:33.425Z,57.07
2023-03-27T21:17:00.626Z,58.04
2023-03-27T21:19:28.167Z,56.67
2023-03-27T21:21:56.152Z,57.16
2023-03-27T21:24:23.211Z,55.92
2023-03-27T21:26:50.262Z,57.16
2023-03-27T21:29:17.614Z,56.49
2023-03-27T21:31:44.838Z,57.79
2023-03-27T21:34:12.045Z,56.65
2023-03-27T21:36:39.236Z,55.29
2023-03-27T21:39:06.307Z,60.60
2023-03-27T21:41:33.378Z,59.27
2023-03-27T21:44:00.472Z,58.70
2023-03-27T21:46:27.625Z,57.57
2023-03-27T21:48:54.805Z,58.41
2023-03-27T21:51:21.842Z,59.64
2023-03-27T21:53:48.917Z,60.96
2023-03-27T21:56:16.434Z,58.63
2023-03-27T21:58:43.607Z,59.93
2023-03-27T22:01:10.956Z,58.69
2023-03-27T22:03:38.429Z,57.25
2023-03-27T22:06:11.813Z,57.73
2023-03-27T22:08:44.946Z,58.58
2023-03-27T22:11:12.078Z,58.93
2023-03-27T22:13:39.358Z,56.89
2023-03-27T22:16:11.066Z,58.50
2023-03-27T22:18:38.234Z,58.04
2023-03-27T22:21:16.553Z,55.82
2023-03-27T22:23:43.719Z,58.37
2023-03-27T22:26:11.105Z,56.78
2023-03-27T22:28:38.125Z,58.04
2023-03-27T22:31:05.739Z,57.60
2023-03-27T22:33:33.012Z,58.80
2023-03-27T22:36:00.370Z,57.65
2023-03-27T22:38:31.574Z,57.12
2023-03-27T22:40:59.670Z,57.14
2023-03-27T22:43:30.759Z,56.12
2023-03-27T22:45:59.161Z,55.05
2023-03-27T22:48:26.377Z,57.55
2023-03-27T22:50:55.089Z,57.88
2023-03-27T22:53:22.386Z,56.78
2023-03-27T22:55:50.079Z,56.94
2023-03-27T22:58:17.658Z,56.71
2023-03-27T23:00:48.484Z,57.50
2023-03-27T23:03:15.788Z,55.80
2023-03-27T23:05:44.707Z,54.99
2023-03-27T23:08:11.785Z,54.71
2023-03-27T23:10:39.028Z,55.21
2023-03-27T23:13:06.241Z,54.75
2023-03-27T23:15:34.052Z,55.37
2023-03-27T23:18:01.325Z,55.26
2023-03-27T23:20:28.643Z,55.06
2023-03-27T23:22:55.745Z,56.24
2023-03-27T23:25:23.334Z,56.45
2023-03-27T23:27:50.429Z,56.13
2023-03-27T23:30:17.564Z,58.53
2023-03-27T23:32:44.635Z,60.89
2023-03-27T23:35:12.202Z,59.11
2023-03-27T23:37:39.400Z,60.27
2023-03-27T23:40:07.154Z,58.91
2023-03-27T23:42:34.291Z,58.57
2023-03-27T23:45:01.359Z,57.94
2023-03-27T23:47:28.403Z,58.81
2023-03-27T23:49:55.526Z,60.19
2023-03-27T23:52:22.473Z,58.20
2023-03-27T23:54:49.613Z,57.83
2023-03-27T23:57:16.708Z,58.07
2023-03-27T23:59:43.785Z,59.57
